Devils Lake, North Dakota
Current Conditions -  °F | °C
As of 4:35 AM on Friday 24 Oct 2014 (Local Time) from KDVL Reporting Station
Clear Clear  
Wind Chill:   Ceiling: Unl
Heat Index:   Visibility: 10mi
Dew Point:   Wind: 6mph
Humidity: 66%   Direction: 240°WSW
Pressure: 29.74"   Gusts: NA
Location:  48.11°N, 98.86°W
Report Text: KDVL 240935Z AUTO 24005KT 10SM CLR 08/02 A2974 RMK AO1
Loading
Personal Weather Stations






























Interactive Weather Map
Tropical Storm Tracking
New forecast layout! Learn more

10-Day Weather Forecast

Advertisements
Track Severe Weather on mobile